Latest Weather Observations for Griffith

IDN60801

Issued at 10:35 pm EST Wednesday 30 July 2014 (issued every 30 minutes, with the page automatically refreshed every 10 minutes)

About weather observations | Map of weather stations | Latest weather observations for NSW | Other Formats
Station Details ID: 075041 Name: GRIFFITH AIRPORT AWS Lat: -34.25 Lon: 146.07 Height: 134.0 m
Data from the previous 72 hours. | See also: Recent months at Griffith
Date/Time
EST
Temp
°C
App
Temp
°C
Dew
Point
Rel
Hum
%
Delta-T
°C
Wind Press
QNH
hPa
Press
MSL
hPa
Rain
since 9 am
mm
Dir
 
Spd
km/h
Gust
km/h
Spd
kts
Gust
kts
30/10:30pm 8.7 7.6 5.3 79 1.5 WNW 0 0 0 0 1016.8 - 0.0
30/10:00pm 9.3 8.3 5.5 77 1.7 NNW 0 0 0 0 1017.0 - 0.0
30/09:30pm 8.9 7.9 5.8 81 1.4 CALM 0 0 0 0 1016.9 - 0.0
30/09:00pm 8.7 7.7 5.8 82 1.3 CALM 0 0 0 0 1016.8 1017.0 0.0
30/08:30pm 9.4 8.5 5.9 79 1.6 CALM 0 0 0 0 1016.9 - 0.0
30/08:00pm 10.2 9.4 6.7 79 1.7 CALM 0 0 0 0 1017.0 - 0.0
30/07:30pm 10.5 8.8 5.9 73 2.1 N 4 6 2 3 1017.1 - 0.0
30/07:00pm 12.3 10.4 6.6 68 2.7 NNW 6 7 3 4 1017.2 - 0.0
30/06:30pm 12.8 10.5 5.9 63 3.3 NNW 7 9 4 5 1017.0 - 0.0
30/06:00pm 14.7 11.9 6.8 59 3.9 NW 11 15 6 8 1016.7 1016.9 0.0
30/05:30pm 16.3 13.1 6.7 53 4.8 NW 13 17 7 9 1016.7 - 0.0
30/05:00pm 18.5 13.9 6.7 46 5.9 NW 20 24 11 13 1016.6 - 0.0
30/04:30pm 19.6 14.7 6.7 43 6.5 NW 22 30 12 16 1016.5 - 0.0
30/04:00pm 20.0 14.4 7.1 43 6.6 NW 26 39 14 21 1016.5 - 0.0
30/03:30pm 19.6 14.1 7.4 45 6.3 NW 26 35 14 19 1016.7 - 0.0
30/03:00pm 19.2 13.3 7.6 47 5.9 NW 28 39 15 21 1016.8 1017.0 0.0
30/02:30pm 20.0 14.4 8.7 48 6.0 WNW 28 39 15 21 1017.0 - 0.0
30/02:00pm 19.9 14.5 7.9 46 6.2 WNW 26 39 14 21 1017.1 - 0.0
30/01:30pm 19.4 13.7 8.4 49 5.7 WNW 28 37 15 20 1017.4 - 0.0
30/01:00pm 19.2 13.2 8.5 50 5.6 NW 30 39 16 21 1017.9 - 0.0
30/12:30pm 18.9 13.2 9.7 55 4.9 WNW 30 41 16 22 1018.6 - 0.0
30/12:00pm 18.6 13.5 10.7 60 4.3 NW 28 35 15 19 1019.2 1019.4 0.0
30/11:30am 17.3 13.1 9.7 61 4.0 NW 22 33 12 18 1019.6 - 0.0
30/11:00am 16.7 12.1 9.6 63 3.7 WNW 24 33 13 18 1020.0 - 0.0
30/10:30am 16.0 12.1 9.4 65 3.4 NW 20 28 11 15 1020.2 - 0.0
30/10:00am 14.0 9.5 8.4 69 2.8 WNW 22 28 12 15 1020.2 - 0.0
30/09:30am 14.5 10.4 8.7 68 3.0 WNW 20 26 11 14 1020.2 - 0.0
30/09:00am 13.4 10.2 8.3 71 2.5 WNW 15 22 8 12 1020.1 1020.4 0.0
30/08:30am 11.2 8.5 7.3 77 1.9 NW 11 15 6 8 1020.1 - 0.0
30/08:00am 10.1 7.7 7.2 82 1.4 NNW 9 13 5 7 1019.8 - 0.0
30/07:30am 9.3 6.8 6.6 83 1.3 NW 9 11 5 6 1019.5 - 0.0
30/07:00am 10.1 7.3 7.0 81 1.5 NNW 11 13 6 7 1019.2 - 0.0
30/06:30am 10.7 7.9 6.8 77 1.9 NW 11 13 6 7 1019.0 - 0.0
30/06:00am 12.1 9.4 7.2 72 2.4 WNW 11 15 6 8 1018.8 1019.0 0.0
30/05:30am 12.4 8.9 7.1 70 2.6 WNW 15 19 8 10 1018.6 - 0.0
30/05:00am 12.7 9.2 7.2 69 2.7 WNW 15 20 8 11 1018.3 - 0.0
30/04:30am 12.2 9.5 7.3 72 2.4 NW 11 15 6 8 1018.2 - 0.0
30/04:00am 12.1 9.4 7.4 73 2.3 NW 11 15 6 8 1018.2 - 0.0
30/03:30am 11.7 9.4 7.4 75 2.1 WNW 9 13 5 7 1018.3 - 0.0
30/03:00am 11.2 8.9 7.3 77 1.9 NW 9 11 5 6 1018.4 1018.6 0.0
30/02:30am 10.5 8.0 6.5 76 1.9 NW 9 11 5 6 1018.3 - 0.0
30/02:00am 10.5 8.5 6.3 75 2.0 WNW 6 7 3 4 1018.5 - 0.0
30/01:30am 10.5 8.0 6.5 76 1.9 NW 9 11 5 6 1018.5 - 0.0
30/01:00am 9.9 7.7 6.4 79 1.6 NNW 7 9 4 5 1018.6 - 0.0
30/12:30am 9.9 7.7 5.1 72 2.2 NW 6 7 3 4 1018.7 - 0.0
30/12:00am 10.4 7.3 5.6 72 2.2 NW 11 13 6 7 1018.8 1019.0 0.0
 
Date/Time
EST
Temp
°C
App
Temp
°C
Dew
Point
Rel
Hum
%
Delta-T
°C
Wind Press
QNH
hPa
Press
MSL
hPa
Rain
since 9 am
mm
Dir
 
Spd
km/h
Gust
km/h
Spd
kts
Gust
kts
29/11:30pm 9.7 7.5 5.1 73 2.1 NNW 6 7 3 4 1018.7 - 0.0
29/11:00pm 9.6 6.8 5.2 74 2.0 NNW 9 11 5 6 1018.8 - 0.0
29/10:30pm 8.6 6.9 4.2 74 1.9 NW 2 6 1 3 1018.8 - 0.0
29/10:00pm 8.4 5.5 2.8 68 2.4 NW 7 9 4 5 1018.9 - 0.0
29/09:30pm 8.6 5.8 3.0 68 2.4 NNW 7 9 4 5 1018.7 - 0.0
29/09:00pm 8.3 5.1 3.0 69 2.3 N 9 11 5 6 1018.5 1018.7 0.0
29/08:30pm 9.0 6.5 3.8 70 2.3 NW 6 6 3 3 1018.3 - 0.0
29/08:00pm 9.8 7.4 4.2 68 2.5 N 6 6 3 3 1017.9 - 0.0
29/07:30pm 11.2 10.1 4.9 65 2.9 CALM 0 0 0 0 1017.7 - 0.0
29/07:00pm 12.0 9.0 4.2 59 3.5 WNW 9 11 5 6 1017.2 - 0.0
29/06:30pm 13.9 10.6 4.5 53 4.4 NW 11 13 6 7 1016.6 - 0.0
29/06:00pm 14.7 11.0 4.7 51 4.7 NW 13 17 7 9 1016.2 1016.4 0.0
29/05:30pm 16.6 12.6 4.9 46 5.6 NW 15 20 8 11 1016.0 - 0.0
29/05:00pm 19.0 13.9 4.0 37 7.2 NW 20 26 11 14 1015.8 - 0.0
29/04:30pm 20.1 13.8 3.8 34 7.8 WNW 26 35 14 19 1015.5 - 0.0
29/04:00pm 20.4 12.8 4.0 34 7.9 NW 33 44 18 24 1015.4 - 0.0
29/03:30pm 20.6 14.0 4.2 34 8.0 WNW 28 39 15 21 1015.7 - 0.0
29/03:00pm 20.6 13.8 5.0 36 7.7 WNW 30 39 16 21 1015.8 1016.1 0.0
29/02:30pm 20.0 13.2 5.3 38 7.3 NW 30 41 16 22 1015.8 - 0.0
29/02:00pm 19.6 12.7 4.5 37 7.3 NW 30 37 16 20 1016.2 - 0.0
29/01:30pm 19.1 12.5 4.1 37 7.2 NW 28 39 15 21 1016.2 - 0.0
29/01:00pm 18.5 12.2 3.9 38 6.9 NW 26 35 14 19 1016.3 - 0.0
29/12:30pm 17.8 11.0 3.3 38 6.8 NW 28 35 15 19 1017.2 - 0.0
29/12:00pm 17.8 13.3 4.4 41 6.4 NNW 17 26 9 14 1017.8 1018.0 0.0
29/11:30am 17.3 12.8 4.3 42 6.2 NNW 17 20 9 11 1018.8 - 0.0
29/11:00am 16.3 12.1 4.0 44 5.8 N 15 19 8 10 1019.0 - 0.0
29/10:30am 15.0 10.7 3.5 46 5.3 NNW 15 20 8 11 1019.1 - 0.0
29/10:00am 13.7 8.9 2.6 47 4.9 NNW 17 22 9 12 1019.1 - 0.0
29/09:30am 12.1 8.1 2.6 52 4.2 N 13 15 7 8 1019.0 - 0.0
29/09:00am 10.4 6.2 1.8 55 3.6 NNW 13 19 7 10 1018.8 1019.0 0.0
29/08:30am 7.6 4.0 2.7 71 2.1 N 11 13 6 7 1018.3 - 0.0
29/08:00am 6.3 2.4 1.0 69 2.1 N 11 13 6 7 1018.5 - 0.0
29/07:30am 6.7 3.2 1.0 67 2.3 N 9 11 5 6 1018.7 - 0.0
29/07:00am 6.6 2.3 1.1 68 2.2 N 13 13 7 7 1018.4 - 0.0
29/06:30am 7.7 3.4 0.9 62 2.7 N 13 15 7 8 1017.9 - 0.0
29/06:00am 8.4 4.1 1.1 60 3.0 N 13 17 7 9 1017.7 1017.9 0.0
29/05:30am 9.6 5.9 0.2 52 3.8 NNW 9 11 5 6 1017.7 - 0.0
29/05:00am 9.9 5.9 0.3 51 3.9 NW 11 15 6 8 1017.5 - 0.0
29/04:30am 10.6 6.1 -0.2 47 4.4 NW 13 17 7 9 1017.5 - 0.0
29/04:00am 11.0 6.2 0.1 47 4.5 NW 15 19 8 10 1017.3 - 0.0
29/03:30am 11.0 6.9 0.1 47 4.5 NW 11 15 6 8 1017.3 - 0.0
29/03:00am 11.4 7.0 0.5 47 4.5 NNW 13 17 7 9 1017.1 1017.3 0.0
29/02:30am 11.9 7.6 1.0 47 4.6 NNW 13 19 7 10 1017.3 - 0.0
29/02:00am 11.8 7.1 0.9 47 4.6 NNW 15 19 8 10 1017.4 - 0.0
29/01:30am 12.1 7.4 1.1 47 4.7 NNW 15 20 8 11 1017.5 - 0.0
29/01:00am 12.4 8.2 1.4 47 4.7 N 13 17 7 9 1017.4 - 0.0
29/12:30am 11.8 8.1 2.3 52 4.1 NNW 11 15 6 8 1017.7 - 0.0
29/12:16am 11.2 8.2 2.2 54 3.9 NNW 7 9 4 5 1017.8 - 0.0
29/12:00am 10.4 7.5 2.7 59 3.3 WNW 7 9 4 5 1018.1 1018.3 0.0
 
Date/Time
EST
Temp
°C
App
Temp
°C
Dew
Point
Rel
Hum
%
Delta-T
°C
Wind Press
QNH
hPa
Press
MSL
hPa
Rain
since 9 am
mm
Dir
 
Spd
km/h
Gust
km/h
Spd
kts
Gust
kts
28/11:56pm 10.2 7.4 3.3 62 3.0 WNW 7 9 4 5 1018.1 - 0.0
28/11:30pm 10.1 7.4 3.6 64 2.9 W 7 9 4 5 1018.2 - 0.0
28/11:00pm 10.4 7.6 3.4 62 3.1 W 7 7 4 4 1018.2 - 0.0
28/10:30pm 10.3 7.7 3.1 61 3.1 W 6 7 3 4 1018.2 - 0.0
28/10:00pm 10.2 7.5 3.5 63 2.9 WSW 7 9 4 5 1018.3 - 0.0
28/09:30pm 10.5 7.9 4.0 64 2.9 WSW 7 9 4 5 1018.4 - 0.0
28/09:00pm 10.8 8.2 4.0 63 3.0 WSW 7 9 4 5 1018.2 1018.4 0.0
28/08:30pm 11.4 9.0 4.2 61 3.3 W 6 7 3 4 1018.2 - 0.0
28/08:00pm 11.7 9.3 4.2 60 3.4 W 6 7 3 4 1018.3 - 0.0
28/07:30pm 12.1 9.6 3.9 57 3.7 WNW 6 7 3 4 1018.1 - 0.0
28/07:00pm 12.6 9.0 3.0 52 4.3 N 11 13 6 7 1018.1 - 0.0
28/06:30pm 13.2 8.9 3.0 50 4.6 N 15 17 8 9 1017.8 - 0.0
28/06:00pm 13.6 9.6 3.1 49 4.7 N 13 15 7 8 1017.9 1018.1 0.0
28/05:30pm 14.3 10.1 3.7 49 4.9 N 15 17 8 9 1017.7 - 0.0
28/05:00pm 17.1 12.8 3.1 39 6.5 N 15 19 8 10 1017.7 - 0.0
28/04:30pm 18.2 13.3 2.1 34 7.4 NNW 17 22 9 12 1017.8 - 0.0
28/04:00pm 18.6 13.5 2.9 35 7.3 NNW 19 24 10 13 1017.7 - 0.0
28/03:30pm 19.0 12.8 2.0 32 7.8 NW 24 30 13 16 1017.9 - 0.0
28/03:00pm 19.2 13.0 2.1 32 7.9 NNW 24 32 13 17 1018.1 1018.3 0.0
28/02:30pm 19.1 13.3 2.5 33 7.7 NW 22 30 12 16 1018.2 - 0.0
28/02:00pm 18.9 13.2 3.1 35 7.4 NW 22 32 12 17 1018.6 - 0.0
28/01:30pm 18.4 12.3 2.7 35 7.3 NW 24 33 13 18 1018.7 - 0.0
28/01:00pm 18.1 11.6 2.4 35 7.2 NW 26 35 14 19 1019.5 - 0.0
28/12:30pm 17.3 11.4 3.9 41 6.3 NW 24 30 13 16 1020.0 - 0.0
28/12:00pm 16.6 10.7 4.0 43 5.9 NW 24 30 13 16 1020.4 1020.7 0.0
28/11:30am 15.9 11.5 4.6 47 5.3 NNW 17 28 9 15 1021.2 - 0.0
28/11:00am 16.1 11.3 5.4 49 5.1 NW 20 26 11 14 1021.4 - 0.0
28/10:30am 15.2 10.4 5.4 52 4.7 NNW 20 30 11 16 1021.7 - 0.0
28/10:00am 13.0 8.4 6.4 64 3.2 NNW 20 26 11 14 1022.1 - 0.0
28/09:30am 12.2 7.7 6.0 66 2.9 NNW 19 24 10 13 1022.0 - 0.0
28/09:00am 9.8 7.3 6.5 80 1.5 NW 9 11 5 6 1022.0 1022.3 0.0
28/08:30am 7.2 5.1 6.0 92 0.5 W 6 7 3 4 1021.6 - 0.0
28/08:00am 5.5 3.2 4.6 94 0.4 W 6 7 3 4 1021.8 - 0.0
28/07:30am 5.4 3.0 4.4 93 0.4 W 6 7 3 4 1021.7 - 0.0
28/07:00am 5.3 2.7 4.4 94 0.4 W 7 9 4 5 1021.8 - 0.0
28/06:30am 5.3 2.7 4.3 93 0.4 WSW 7 9 4 5 1021.6 - 0.0
28/06:00am 5.0 2.5 4.6 97 0.2 SW 7 9 4 5 1021.4 1021.7 0.0
28/05:30am 4.7 2.0 3.8 94 0.4 WSW 7 7 4 4 1021.2 - 0.0
28/05:00am 5.2 4.0 4.5 95 0.3 CALM 0 0 0 0 1021.5 - 0.0
28/04:30am 5.2 2.3 4.9 98 0.1 SW 9 9 5 5 1021.8 - 0.0
28/04:00am 5.1 3.9 4.5 96 0.3 CALM 0 0 0 0 1021.8 - 0.0
28/03:30am 5.2 3.9 4.2 93 0.4 CALM 0 6 0 3 1021.6 - 0.0
28/03:00am 5.8 3.9 4.9 94 0.4 SSW 4 7 2 4 1022.0 1022.3 0.0
28/02:30am 4.8 3.2 4.4 97 0.2 SW 2 7 1 4 1022.1 - 0.0
28/02:00am 5.0 3.7 4.3 95 0.3 CALM 0 6 0 3 1022.3 - 0.0
28/01:30am 5.1 3.8 4.1 93 0.4 CALM 0 0 0 0 1022.4 - 0.0
28/01:00am 5.5 4.2 4.3 92 0.5 CALM 0 0 0 0 1022.8 - 0.0
28/12:30am 5.7 4.0 4.2 90 0.6 N 2 9 1 5 1023.1 - 0.0
28/12:00am 5.4 3.2 3.6 88 0.8 N 4 6 2 3 1023.3 1023.6 0.0
 
Date/Time
EST
Temp
°C
App
Temp
°C
Dew
Point
Rel
Hum
%
Delta-T
°C
Wind Press
QNH
hPa
Press
MSL
hPa
Rain
since 9 am
mm
Dir
 
Spd
km/h
Gust
km/h
Spd
kts
Gust
kts
27/11:30pm 6.9 4.4 4.9 87 0.9 WSW 7 7 4 4 1023.8 - 0.0
27/11:00pm 7.2 6.1 4.9 85 1.0 CALM 0 0 0 0 1023.4 - 0.0

Other Formats:

Comma delimited format used in spreadsheet applications
http://www.bom.gov.au/fwo/IDN60801/IDN60801.95704.axf

JavaScript Object Notation format (JSON) in row-major order
http://www.bom.gov.au/fwo/IDN60801/IDN60801.95704.json